createdAt,value
2023-03-23T16:06:47.403Z,19.17
2023-03-23T16:10:51.532Z,19.15
2023-03-23T16:24:02.027Z,18.82
2023-03-23T16:26:41.041Z,18.81
2023-03-23T16:29:40.004Z,18.87
2023-03-23T16:32:29.697Z,18.91
2023-03-23T16:38:06.968Z,18.80
2023-03-23T16:41:31.938Z,19.07
2023-03-23T16:44:28.453Z,18.88
2023-03-23T16:47:03.744Z,18.85
2023-03-23T16:49:37.119Z,18.95
2023-03-23T16:52:09.890Z,18.94
2023-03-23T16:54:42.639Z,18.91
2023-03-23T16:57:15.495Z,18.88
2023-03-23T16:59:48.233Z,18.85
2023-03-23T17:02:35.684Z,18.74
2023-03-23T17:05:15.776Z,18.83
2023-03-23T17:07:52.268Z,18.87
2023-03-23T17:10:28.842Z,18.76
2023-03-23T17:13:20.305Z,18.89
2023-03-23T17:15:59.304Z,18.69
2023-03-23T17:18:31.951Z,18.80
2023-03-23T17:21:04.890Z,18.72
2023-03-23T17:23:42.857Z,18.75
2023-03-23T17:26:15.553Z,18.73
2023-03-23T17:28:48.409Z,18.65
2023-03-23T17:31:26.140Z,18.80
2023-03-23T17:34:04.962Z,18.81
2023-03-23T17:37:00.500Z,18.66
2023-03-23T17:39:42.604Z,18.74
2023-03-23T17:42:16.484Z,18.64
2023-03-23T17:45:06.119Z,18.78
2023-03-23T17:47:53.577Z,18.61
2023-03-23T17:50:26.291Z,18.73
2023-03-23T17:54:36.344Z,18.85
2023-03-23T17:57:09.305Z,18.70
2023-03-23T17:59:51.012Z,18.59
2023-03-23T18:02:23.721Z,18.71
2023-03-23T18:04:59.804Z,18.59
2023-03-23T18:07:32.349Z,18.58
2023-03-23T18:10:14.470Z,18.68
2023-03-23T18:12:52.260Z,18.55
2023-03-23T18:15:28.121Z,18.64
2023-03-23T18:18:03.766Z,18.67
2023-03-23T18:20:36.743Z,18.52
2023-03-23T18:23:09.594Z,18.59
2023-03-23T18:25:42.242Z,18.59
2023-03-23T18:28:18.882Z,18.67
2023-03-23T18:30:52.221Z,18.66
2023-03-23T18:33:25.810Z,18.61
2023-03-23T18:38:48.293Z,18.63
2023-03-23T18:41:20.859Z,18.64
2023-03-23T18:43:55.130Z,18.63
2023-03-23T18:46:29.720Z,18.56
2023-03-23T18:49:08.553Z,18.62
2023-03-23T18:51:41.193Z,18.60
2023-03-23T18:54:22.898Z,18.49
2023-03-23T18:57:04.685Z,18.50
2023-03-23T18:59:39.848Z,18.41
2023-03-23T19:02:13.964Z,18.48
2023-03-23T19:04:50.501Z,18.83
2023-03-23T19:07:23.234Z,18.60
2023-03-23T19:10:00.946Z,18.59
2023-03-23T19:12:43.574Z,18.45
2023-03-23T19:15:25.475Z,18.46
2023-03-23T19:18:10.186Z,18.43
2023-03-23T19:21:06.568Z,18.40
2023-03-23T19:26:37.992Z,18.51
2023-03-23T19:32:14.857Z,18.53
2023-03-23T19:34:51.308Z,18.51
2023-03-23T19:37:24.299Z,18.43
2023-03-23T19:39:57.228Z,18.51
2023-03-23T19:42:29.811Z,18.51
2023-03-23T19:45:03.469Z,18.46
2023-03-23T19:47:36.371Z,18.52
2023-03-23T19:50:09.117Z,18.50
2023-03-23T19:52:42.173Z,18.51
2023-03-23T19:55:15.493Z,18.52
2023-03-23T19:57:50.658Z,18.51
2023-03-23T20:00:24.478Z,18.49
2023-03-23T20:02:58.242Z,18.49
2023-03-23T20:05:30.934Z,18.50
2023-03-23T20:11:08.032Z,18.46
2023-03-23T20:13:41.590Z,18.48
2023-03-23T20:16:15.692Z,18.48
2023-03-23T20:18:49.921Z,18.73
2023-03-23T20:21:24.972Z,18.49
2023-03-23T20:23:58.782Z,18.45
2023-03-23T20:26:38.890Z,18.46
2023-03-23T20:29:14.617Z,18.27
2023-03-23T20:31:58.257Z,18.43
2023-03-23T20:34:39.807Z,18.28
2023-03-23T20:37:24.610Z,18.39
2023-03-23T20:40:14.162Z,18.29
2023-03-23T20:42:49.115Z,18.27
2023-03-23T20:45:22.492Z,18.41
2023-03-23T20:47:55.178Z,18.31
2023-03-23T20:50:43.586Z,18.39
2023-03-23T20:53:35.555Z,18.42
2023-03-23T20:56:14.526Z,18.26
2023-03-23T20:59:03.791Z,18.25
2023-03-23T21:01:39.756Z,18.27
2023-03-23T21:04:23.033Z,18.23
2023-03-23T21:06:56.003Z,18.21
2023-03-23T21:09:32.125Z,18.24
2023-03-23T21:12:22.584Z,18.45
2023-03-23T21:15:04.186Z,18.26
2023-03-23T21:17:52.097Z,18.38
2023-03-23T21:20:33.416Z,18.37
2023-03-23T21:23:07.654Z,18.27
2023-03-23T21:25:53.705Z,18.32
2023-03-23T21:28:26.385Z,18.31
2023-03-23T21:31:05.038Z,18.36
2023-03-23T21:33:37.908Z,18.31
2023-03-23T21:36:11.457Z,18.37
2023-03-23T21:38:51.245Z,18.27
2023-03-23T21:41:42.629Z,18.30
2023-03-23T21:44:18.124Z,18.34
2023-03-23T21:46:52.433Z,18.28
2023-03-23T21:49:25.476Z,18.24
2023-03-23T21:52:02.279Z,18.21
2023-03-23T21:54:37.384Z,18.30
2023-03-23T21:57:10.194Z,18.19
2023-03-23T21:59:46.314Z,18.32
2023-03-23T22:02:19.276Z,18.16
2023-03-23T22:04:56.605Z,18.22
2023-03-23T22:07:33.393Z,18.29
2023-03-23T22:10:15.424Z,18.28
2023-03-23T22:12:55.621Z,18.14
2023-03-23T22:15:31.486Z,18.19
2023-03-23T22:18:16.672Z,18.28
2023-03-23T22:21:37.286Z,18.24
2023-03-23T22:31:34.014Z,18.40
2023-03-23T22:34:23.722Z,18.25
2023-03-23T22:44:27.018Z,18.27
2023-03-23T22:46:40.763Z,18.17
2023-03-23T22:49:22.559Z,18.06
2023-03-23T22:52:11.020Z,18.21
2023-03-23T22:54:59.502Z,18.21
2023-03-23T22:57:49.515Z,18.09
2023-03-23T23:03:28.613Z,18.09
2023-03-23T23:06:24.506Z,18.10
2023-03-23T23:08:55.826Z,18.01
2023-03-23T23:11:28.567Z,18.10
2023-03-23T23:14:01.767Z,18.09
2023-03-23T23:16:52.838Z,18.12
2023-03-23T23:19:26.080Z,18.01
2023-03-23T23:22:09.312Z,18.05
2023-03-23T23:25:05.485Z,18.24
2023-03-23T23:27:49.824Z,18.15
2023-03-23T23:30:22.626Z,18.05
2023-03-23T23:32:56.843Z,17.96
2023-03-23T23:35:35.560Z,18.11
2023-03-23T23:41:14.890Z,18.07
2023-03-23T23:44:08.843Z,18.07
2023-03-23T23:46:42.549Z,18.07
2023-03-23T23:49:17.968Z,18.05
2023-03-23T23:51:51.584Z,18.07
2023-03-23T23:57:31.641Z,17.99
